createdAt,value
2018-11-06T00:02:18.836Z,7.54
2018-11-06T00:04:52.487Z,7.56
2018-11-06T00:07:21.231Z,7.65
2018-11-06T00:09:49.714Z,7.73
2018-11-06T00:12:18.268Z,7.69
2018-11-06T00:14:46.777Z,7.66
2018-11-06T00:17:15.345Z,7.65
2018-11-06T00:19:43.883Z,7.61
2018-11-06T00:22:12.399Z,7.65
2018-11-06T00:24:41.027Z,7.68
2018-11-06T00:27:09.645Z,7.68
2018-11-06T00:29:38.350Z,7.64
2018-11-06T00:32:06.903Z,7.60
2018-11-06T00:34:35.453Z,7.62
2018-11-06T00:37:05.672Z,7.74
2018-11-06T00:39:34.149Z,7.72
2018-11-06T00:42:04.511Z,7.68
2018-11-06T00:44:33.061Z,7.72
2018-11-06T00:47:02.720Z,7.67
2018-11-06T00:49:31.421Z,7.77
2018-11-06T00:51:59.989Z,7.78
2018-11-06T00:54:28.618Z,7.76
2018-11-06T00:56:57.243Z,7.85
2018-11-06T00:59:26.208Z,7.75
2018-11-06T01:01:54.757Z,7.70
2018-11-06T01:04:23.345Z,7.68
2018-11-06T01:06:51.949Z,7.71
2018-11-06T01:09:20.535Z,7.75
2018-11-06T01:11:49.176Z,7.80
2018-11-06T01:14:17.711Z,7.89
2018-11-06T01:16:46.262Z,8.02
2018-11-06T01:19:14.800Z,7.93
2018-11-06T01:21:43.373Z,7.79
2018-11-06T01:24:11.928Z,7.73
2018-11-06T01:26:40.466Z,7.69
2018-11-06T01:29:09.557Z,7.80
2018-11-06T01:31:38.238Z,7.74
2018-11-06T01:34:06.793Z,7.85
2018-11-06T01:36:35.316Z,7.81
2018-11-06T01:39:07.628Z,7.77
2018-11-06T01:41:36.164Z,7.77
2018-11-06T01:44:05.442Z,7.80
2018-11-06T01:46:33.987Z,7.72
2018-11-06T01:49:04.049Z,7.66
2018-11-06T01:51:32.933Z,7.58
2018-11-06T01:54:02.959Z,7.51
2018-11-06T01:56:31.486Z,7.45
2018-11-06T01:58:59.994Z,7.39
2018-11-06T02:01:28.559Z,7.40
2018-11-06T02:03:57.114Z,7.35
2018-11-06T02:06:25.882Z,7.37
2018-11-06T02:08:54.408Z,7.18
2018-11-06T02:11:23.007Z,7.13
2018-11-06T02:13:51.669Z,7.06
2018-11-06T02:16:20.205Z,6.98
2018-11-06T02:18:48.720Z,6.93
2018-11-06T02:21:17.239Z,6.84
2018-11-06T02:23:45.993Z,6.78
2018-11-06T02:26:14.556Z,6.71
2018-11-06T02:28:49.623Z,6.62
2018-11-06T02:31:18.110Z,6.53
2018-11-06T02:33:46.686Z,6.44
2018-11-06T02:36:15.252Z,6.41
2018-11-06T02:38:43.853Z,6.38
2018-11-06T02:41:12.367Z,6.33
2018-11-06T02:43:40.863Z,6.34
2018-11-06T02:46:09.418Z,6.24
2018-11-06T02:48:38.205Z,6.19
2018-11-06T02:51:06.775Z,6.12
2018-11-06T02:53:35.323Z,6.09
2018-11-06T02:56:07.243Z,6.01
2018-11-06T02:58:36.163Z,5.97
2018-11-06T03:01:05.627Z,5.96
2018-11-06T03:03:41.493Z,5.91
2018-11-06T03:06:11.878Z,5.91
2018-11-06T03:08:40.719Z,5.93
2018-11-06T03:11:09.387Z,5.88
2018-11-06T03:13:38.342Z,5.86
2018-11-06T03:16:06.913Z,5.85
2018-11-06T03:18:35.733Z,5.87
2018-11-06T03:21:05.364Z,5.79
2018-11-06T03:23:33.884Z,5.79
2018-11-06T03:26:05.197Z,5.75
2018-11-06T03:28:33.853Z,5.69
2018-11-06T03:31:03.839Z,5.65
2018-11-06T03:33:32.352Z,5.62
2018-11-06T03:36:00.902Z,5.59
2018-11-06T03:38:29.457Z,5.60
2018-11-06T03:40:57.970Z,5.62
2018-11-06T03:43:26.501Z,5.54
2018-11-06T03:45:55.013Z,5.51
2018-11-06T03:48:23.547Z,5.44
2018-11-06T03:50:52.175Z,5.41
2018-11-06T03:53:20.684Z,5.40
2018-11-06T03:55:49.221Z,5.50
2018-11-06T03:58:18.521Z,5.46
2018-11-06T04:00:47.057Z,5.51
2018-11-06T04:03:15.789Z,5.54
2018-11-06T04:05:44.308Z,5.53
2018-11-06T04:08:12.926Z,5.57
2018-11-06T04:10:41.797Z,5.57
2018-11-06T04:13:10.301Z,5.55
2018-11-06T04:15:38.901Z,5.57
2018-11-06T04:18:07.420Z,5.57
2018-11-06T04:20:36.276Z,5.54
2018-11-06T04:23:05.603Z,5.58
2018-11-06T04:25:34.532Z,5.55
2018-11-06T04:28:04.357Z,5.59
2018-11-06T04:30:32.882Z,5.61
2018-11-06T04:33:03.287Z,5.65
2018-11-06T04:35:32.373Z,5.65
2018-11-06T04:38:00.908Z,5.80
2018-11-06T04:40:29.486Z,5.80
2018-11-06T04:42:57.996Z,5.81
2018-11-06T04:45:26.566Z,5.76
2018-11-06T04:47:55.114Z,5.72
2018-11-06T04:50:23.673Z,5.74
2018-11-06T04:52:52.261Z,5.80
2018-11-06T04:55:20.788Z,5.85
2018-11-06T04:57:49.827Z,5.94
2018-11-06T05:00:18.350Z,5.90
2018-11-06T05:02:46.916Z,5.97
2018-11-06T05:05:15.600Z,6.16
2018-11-06T05:07:44.505Z,6.22
2018-11-06T05:10:15.944Z,6.26
2018-11-06T05:12:44.809Z,6.40
2018-11-06T05:15:14.573Z,6.61
2018-11-06T05:17:43.168Z,6.73
2018-11-06T05:20:14.384Z,6.84
2018-11-06T05:22:43.391Z,6.80
2018-11-06T05:25:11.902Z,6.72
2018-11-06T05:27:40.691Z,6.72
2018-11-06T05:30:10.807Z,6.78
2018-11-06T05:32:40.360Z,6.75
2018-11-06T05:35:09.736Z,6.86
2018-11-06T05:37:39.499Z,7.05
2018-11-06T05:40:19.241Z,7.00
2018-11-06T05:42:47.840Z,7.00
2018-11-06T05:45:16.347Z,7.06
2018-11-06T05:47:48.911Z,6.99
2018-11-06T05:50:17.806Z,7.09
2018-11-06T05:52:46.337Z,7.06
2018-11-06T05:55:15.042Z,7.03
2018-11-06T05:57:43.640Z,6.99
2018-11-06T06:00:12.274Z,7.00
2018-11-06T06:02:40.888Z,7.05
2018-11-06T06:05:09.252Z,7.11
2018-11-06T06:07:37.796Z,7.13
2018-11-06T06:10:07.089Z,7.08
2018-11-06T06:12:36.006Z,7.07
2018-11-06T06:15:06.840Z,7.12
2018-11-06T06:17:35.469Z,7.14
2018-11-06T06:20:06.654Z,7.10
2018-11-06T06:22:35.342Z,7.19
2018-11-06T06:25:10.541Z,7.28
2018-11-06T06:27:39.209Z,7.22
2018-11-06T06:30:10.289Z,7.23
2018-11-06T06:32:38.861Z,7.24
2018-11-06T06:35:07.483Z,7.25
2018-11-06T06:37:36.053Z,7.29
2018-11-06T06:40:06.509Z,7.27
2018-11-06T06:42:35.041Z,7.24
2018-11-06T06:45:07.334Z,7.20
2018-11-06T06:47:36.720Z,7.18
2018-11-06T06:50:08.283Z,7.18
2018-11-06T06:52:37.268Z,7.22
2018-11-06T06:55:07.592Z,7.24
2018-11-06T06:57:36.690Z,7.17
2018-11-06T07:00:06.735Z,7.24
2018-11-06T07:02:35.944Z,7.24
2018-11-06T07:05:07.068Z,7.32
2018-11-06T07:07:35.853Z,7.36
2018-11-06T07:10:06.324Z,7.42
2018-11-06T07:12:35.312Z,7.46
2018-11-06T07:15:08.014Z,7.47
2018-11-06T07:17:36.922Z,7.52
2018-11-06T07:20:07.566Z,7.58
2018-11-06T07:22:36.298Z,7.60
2018-11-06T07:25:06.604Z,7.73
2018-11-06T07:27:38.848Z,7.73
2018-11-06T07:30:09.781Z,7.76
2018-11-06T07:32:38.750Z,7.84
2018-11-06T07:35:08.419Z,7.87
2018-11-06T07:37:37.233Z,7.93
2018-11-06T07:40:06.888Z,8.00
2018-11-06T07:42:35.416Z,8.04
2018-11-06T07:45:07.153Z,8.12
2018-11-06T07:47:35.744Z,8.21
2018-11-06T07:50:06.251Z,8.25
2018-11-06T07:52:35.217Z,8.32
2018-11-06T07:55:06.295Z,8.32
2018-11-06T07:57:34.799Z,8.33
2018-11-06T08:00:10.051Z,8.35
2018-11-06T08:02:39.832Z,8.37
2018-11-06T08:05:08.542Z,8.36
2018-11-06T08:07:37.144Z,8.41
2018-11-06T08:10:06.751Z,8.47
2018-11-06T08:12:35.503Z,8.50
2018-11-06T08:15:05.724Z,8.55
2018-11-06T08:17:34.532Z,8.61
2018-11-06T08:20:05.137Z,8.76
2018-11-06T08:22:33.751Z,8.75
2018-11-06T08:25:07.071Z,8.89
2018-11-06T08:27:35.813Z,9.05
2018-11-06T08:30:06.167Z,9.17
2018-11-06T08:32:35.411Z,9.21
2018-11-06T08:35:05.730Z,9.31
2018-11-06T08:37:34.270Z,9.30
2018-11-06T08:40:05.816Z,9.44
2018-11-06T08:42:34.506Z,9.40
2018-11-06T08:45:05.432Z,9.36
2018-11-06T08:47:33.995Z,9.43
2018-11-06T08:50:03.499Z,9.50
2018-11-06T08:52:32.050Z,9.52
2018-11-06T08:55:00.777Z,9.56
2018-11-06T08:57:29.400Z,9.62
2018-11-06T08:59:57.934Z,9.72
2018-11-06T09:02:26.646Z,9.87
2018-11-06T09:04:55.385Z,9.84
2018-11-06T09:07:23.941Z,9.85
2018-11-06T09:09:52.475Z,9.89
2018-11-06T09:12:21.158Z,9.98
2018-11-06T09:14:49.698Z,10.09
2018-11-06T09:17:18.544Z,10.13
2018-11-06T09:19:47.067Z,10.18
2018-11-06T09:22:15.635Z,10.34
2018-11-06T09:24:44.768Z,10.43
2018-11-06T09:27:13.289Z,10.48
2018-11-06T09:29:41.878Z,10.63
2018-11-06T09:32:10.408Z,10.82
2018-11-06T09:34:38.940Z,10.90
2018-11-06T09:37:07.869Z,11.08
2018-11-06T09:39:37.942Z,11.30
2018-11-06T09:42:06.902Z,11.36
2018-11-06T09:44:35.501Z,11.56
2018-11-06T09:47:05.875Z,11.46
2018-11-06T09:49:34.350Z,11.52
2018-11-06T09:52:04.708Z,11.59
2018-11-06T09:54:33.206Z,11.73
2018-11-06T09:57:02.831Z,11.76
2018-11-06T09:59:31.429Z,11.82
2018-11-06T10:02:00.254Z,11.88
2018-11-06T10:04:28.832Z,11.93
2018-11-06T10:06:57.620Z,12.08
2018-11-06T10:09:25.869Z,12.12
2018-11-06T10:11:54.879Z,12.17
2018-11-06T10:14:23.377Z,12.28
2018-11-06T10:16:51.975Z,12.47
2018-11-06T10:19:20.516Z,12.60
2018-11-06T10:21:49.053Z,12.64
2018-11-06T10:24:17.636Z,12.60
2018-11-06T10:26:46.500Z,12.74
2018-11-06T10:29:15.074Z,12.78
2018-11-06T10:31:44.576Z,12.72
2018-11-06T10:34:13.104Z,12.75
2018-11-06T10:36:41.652Z,12.96
2018-11-06T10:39:12.335Z,13.13
2018-11-06T10:41:41.321Z,13.15
2018-11-06T10:44:09.962Z,13.23
2018-11-06T10:46:38.972Z,13.39
2018-11-06T10:49:08.485Z,13.59
2018-11-06T10:51:37.101Z,13.67
2018-11-06T10:54:06.131Z,13.69
2018-11-06T10:56:34.724Z,13.92
2018-11-06T10:59:06.547Z,13.98
2018-11-06T11:01:40.246Z,14.09
2018-11-06T11:04:14.100Z,14.13
2018-11-06T11:06:42.616Z,14.23
2018-11-06T11:09:11.769Z,14.04
2018-11-06T11:11:40.404Z,14.23
2018-11-06T11:14:09.032Z,14.10
2018-11-06T11:16:37.577Z,14.17
2018-11-06T11:19:06.273Z,14.21
2018-11-06T11:21:34.816Z,14.18
2018-11-06T11:24:04.837Z,14.34
2018-11-06T11:26:33.424Z,14.61
2018-11-06T11:29:04.539Z,14.68
2018-11-06T11:31:33.113Z,14.79
2018-11-06T11:34:02.687Z,14.73
2018-11-06T11:36:31.245Z,15.06
2018-11-06T11:38:59.857Z,15.01
2018-11-06T11:41:28.598Z,15.39
2018-11-06T11:43:57.145Z,15.47
2018-11-06T11:46:25.656Z,15.41
2018-11-06T11:48:54.406Z,15.69
2018-11-06T11:51:23.060Z,15.94
2018-11-06T11:53:51.588Z,15.71
2018-11-06T11:56:20.128Z,15.99
2018-11-06T11:58:48.688Z,15.69
2018-11-06T12:01:17.326Z,15.68
2018-11-06T12:03:46.162Z,16.02
2018-11-06T12:06:14.682Z,16.02
2018-11-06T12:08:43.713Z,16.07
2018-11-06T12:11:12.288Z,16.07
2018-11-06T12:13:41.009Z,16.71
2018-11-06T12:16:09.630Z,17.05
2018-11-06T12:18:38.178Z,16.74
2018-11-06T12:21:06.828Z,17.07
2018-11-06T12:23:35.340Z,17.01
2018-11-06T12:26:04.876Z,16.82
2018-11-06T12:28:33.440Z,16.94
2018-11-06T12:31:04.664Z,16.97
2018-11-06T12:33:33.563Z,16.98
2018-11-06T12:36:05.282Z,17.18
2018-11-06T12:38:33.903Z,16.69
2018-11-06T12:41:03.873Z,16.62
2018-11-06T12:43:33.618Z,16.87
2018-11-06T12:46:04.103Z,16.82
2018-11-06T12:48:32.642Z,16.86
2018-11-06T12:51:03.253Z,17.08
2018-11-06T12:53:32.052Z,17.10
2018-11-06T12:56:00.573Z,17.03
2018-11-06T12:58:29.117Z,17.19
2018-11-06T13:00:57.650Z,17.09
2018-11-06T13:03:26.323Z,17.40
2018-11-06T13:05:54.946Z,17.22
2018-11-06T13:08:23.549Z,17.32
2018-11-06T13:10:52.073Z,17.15
2018-11-06T13:13:20.643Z,17.35
2018-11-06T13:15:49.262Z,17.28
2018-11-06T13:18:17.954Z,17.56
2018-11-06T13:20:46.478Z,17.48
2018-11-06T13:23:15.212Z,18.01
2018-11-06T13:25:43.846Z,18.01
2018-11-06T13:28:12.401Z,17.97
2018-11-06T13:30:41.164Z,18.13
2018-11-06T13:33:09.821Z,18.07
2018-11-06T13:35:38.543Z,18.43
2018-11-06T13:38:07.340Z,18.79
2018-11-06T13:40:36.169Z,18.30
2018-11-06T13:43:05.724Z,18.38
2018-11-06T13:45:34.513Z,17.80
2018-11-06T13:48:05.100Z,18.08
2018-11-06T13:50:35.398Z,18.57
2018-11-06T13:53:06.566Z,18.37
2018-11-06T13:55:35.107Z,18.15
2018-11-06T13:58:05.706Z,18.65
2018-11-06T14:00:34.267Z,17.67
2018-11-06T14:03:04.647Z,17.81
2018-11-06T14:05:33.270Z,18.03
2018-11-06T14:08:02.664Z,17.76
2018-11-06T14:10:31.273Z,18.07
2018-11-06T14:12:59.833Z,18.07
2018-11-06T14:15:28.372Z,17.51
2018-11-06T14:17:56.896Z,17.17
2018-11-06T14:20:25.416Z,17.50
2018-11-06T14:22:54.458Z,17.14
2018-11-06T14:25:22.994Z,16.68
2018-11-06T14:27:51.542Z,16.78
2018-11-06T14:30:20.425Z,17.02
2018-11-06T14:32:49.273Z,16.81
2018-11-06T14:35:18.894Z,16.81
2018-11-06T14:37:47.736Z,16.86
2018-11-06T14:40:16.768Z,16.68
2018-11-06T14:42:45.749Z,16.53
2018-11-06T14:45:15.684Z,16.75
2018-11-06T14:47:44.340Z,16.73
2018-11-06T14:50:13.235Z,16.55
2018-11-06T14:52:41.784Z,16.45
2018-11-06T14:55:12.307Z,16.30
2018-11-06T14:57:41.067Z,16.26
2018-11-06T15:00:14.411Z,16.30
2018-11-06T15:02:44.256Z,16.28
2018-11-06T15:05:12.815Z,16.45
2018-11-06T15:07:41.420Z,16.24
2018-11-06T15:10:10.707Z,15.93
2018-11-06T15:12:39.288Z,15.68
2018-11-06T15:15:09.404Z,15.37
2018-11-06T15:17:38.209Z,15.28
2018-11-06T15:20:09.308Z,15.35
2018-11-06T15:22:37.963Z,15.20
2018-11-06T15:25:07.002Z,15.08
2018-11-06T15:27:36.150Z,15.03
2018-11-06T15:30:07.056Z,14.88
2018-11-06T15:32:35.606Z,14.72
2018-11-06T15:35:07.477Z,14.58
2018-11-06T15:37:36.569Z,14.48
2018-11-06T15:40:05.930Z,14.37
2018-11-06T15:42:34.569Z,14.27
2018-11-06T15:45:05.448Z,14.17
2018-11-06T15:47:34.065Z,14.13
2018-11-06T15:50:04.615Z,14.01
2018-11-06T15:52:33.335Z,13.89
2018-11-06T15:55:05.422Z,13.80
2018-11-06T15:57:34.168Z,13.70
2018-11-06T16:00:03.882Z,13.64
2018-11-06T16:02:32.878Z,13.61
2018-11-06T16:05:02.995Z,13.52
2018-11-06T16:07:31.606Z,13.49
2018-11-06T16:10:00.173Z,13.41
2018-11-06T16:12:28.740Z,13.42
2018-11-06T16:14:57.805Z,13.35
2018-11-06T16:17:26.315Z,13.25
2018-11-06T16:19:54.944Z,13.18
2018-11-06T16:22:23.503Z,13.11
2018-11-06T16:24:52.150Z,12.99
2018-11-06T16:27:20.742Z,12.86
2018-11-06T16:29:49.419Z,12.84
2018-11-06T16:32:24.113Z,12.78
2018-11-06T16:34:52.677Z,12.73
2018-11-06T16:37:21.913Z,12.67
2018-11-06T16:39:50.847Z,12.61
2018-11-06T16:42:19.496Z,12.46
2018-11-06T16:44:48.031Z,12.48
2018-11-06T16:47:16.618Z,12.42
2018-11-06T16:49:45.243Z,12.32
2018-11-06T16:52:14.909Z,12.19
2018-11-06T16:54:43.793Z,12.08
2018-11-06T16:57:12.412Z,11.93
2018-11-06T16:59:41.130Z,11.88
2018-11-06T17:02:09.928Z,11.86
2018-11-06T17:04:38.438Z,11.93
2018-11-06T17:07:07.005Z,11.78
2018-11-06T17:09:35.627Z,11.78
2018-11-06T17:12:04.462Z,11.63
2018-11-06T17:14:33.153Z,11.63
2018-11-06T17:17:04.596Z,11.77
2018-11-06T17:19:33.176Z,11.70
2018-11-06T17:22:03.179Z,11.62
2018-11-06T17:24:31.733Z,11.77
2018-11-06T17:27:00.346Z,11.75
2018-11-06T17:29:29.009Z,11.79
2018-11-06T17:31:57.568Z,11.76
2018-11-06T17:34:26.680Z,11.70
2018-11-06T17:36:55.402Z,11.60
2018-11-06T17:39:28.012Z,11.58
2018-11-06T17:41:56.533Z,11.60
2018-11-06T17:44:25.071Z,11.68
2018-11-06T17:46:53.635Z,11.73
2018-11-06T17:49:22.174Z,11.68
2018-11-06T17:51:50.736Z,11.69
2018-11-06T17:54:20.186Z,11.71
2018-11-06T17:56:49.648Z,11.70
2018-11-06T17:59:18.604Z,11.58
2018-11-06T18:01:47.170Z,11.54
2018-11-06T18:04:16.188Z,11.52
2018-11-06T18:06:44.839Z,11.47
2018-11-06T18:09:14.052Z,11.44
2018-11-06T18:11:42.688Z,11.38
2018-11-06T18:14:11.531Z,11.28
2018-11-06T18:16:40.489Z,11.25
2018-11-06T18:19:09.185Z,11.21
2018-11-06T18:21:37.769Z,11.18
2018-11-06T18:24:09.301Z,11.11
2018-11-06T18:26:38.042Z,11.05
2018-11-06T18:29:07.157Z,10.96
2018-11-06T18:31:35.805Z,10.96
2018-11-06T18:34:08.329Z,10.84
2018-11-06T18:36:37.049Z,10.73
2018-11-06T18:39:09.683Z,10.67
2018-11-06T18:41:38.420Z,10.71
2018-11-06T18:44:07.759Z,10.52
2018-11-06T18:46:36.606Z,10.46
2018-11-06T18:49:06.128Z,10.49
2018-11-06T18:51:34.712Z,10.34
2018-11-06T18:54:08.565Z,10.25
2018-11-06T18:56:37.210Z,10.49
2018-11-06T18:59:06.276Z,10.41
2018-11-06T19:01:34.920Z,10.33
2018-11-06T19:04:05.951Z,10.28
2018-11-06T19:06:34.542Z,10.36
2018-11-06T19:09:07.515Z,10.16
2018-11-06T19:11:36.187Z,9.96
2018-11-06T19:14:05.723Z,10.06
2018-11-06T19:16:34.361Z,10.12
2018-11-06T19:19:06.316Z,9.79
2018-11-06T19:21:35.063Z,9.76
2018-11-06T19:24:05.843Z,9.70
2018-11-06T19:26:34.858Z,9.91
2018-11-06T19:29:05.855Z,9.86
2018-11-06T19:31:34.541Z,9.76
2018-11-06T19:34:04.860Z,9.73
2018-11-06T19:36:33.608Z,9.75
2018-11-06T19:39:06.026Z,9.80
2018-11-06T19:41:35.609Z,10.02
2018-11-06T19:44:07.115Z,9.92
2018-11-06T19:46:36.081Z,9.96
2018-11-06T19:49:05.438Z,9.93
2018-11-06T19:51:34.906Z,9.76
2018-11-06T19:54:05.839Z,9.58
2018-11-06T19:56:35.074Z,9.54
2018-11-06T19:59:04.644Z,9.48
2018-11-06T20:01:33.489Z,9.55
2018-11-06T20:04:04.445Z,9.36
2018-11-06T20:06:33.650Z,9.24
2018-11-06T20:09:05.384Z,9.13
2018-11-06T20:11:34.666Z,9.05
2018-11-06T20:14:05.156Z,9.02
2018-11-06T20:16:34.171Z,8.97
2018-11-06T20:19:04.978Z,8.87
2018-11-06T20:21:33.721Z,8.81
2018-11-06T20:24:04.215Z,9.03
2018-11-06T20:26:33.445Z,9.11
2018-11-06T20:29:04.826Z,9.13
2018-11-06T20:31:34.018Z,8.98
2018-11-06T20:34:06.388Z,8.89
2018-11-06T20:36:35.032Z,9.12
2018-11-06T20:39:08.386Z,9.00
2018-11-06T20:41:38.200Z,8.97
2018-11-06T20:44:07.058Z,8.89
2018-11-06T20:46:36.154Z,8.70
2018-11-06T20:49:05.542Z,8.66
2018-11-06T20:51:34.310Z,8.53
2018-11-06T20:54:05.293Z,8.57
2018-11-06T20:56:34.639Z,8.44
2018-11-06T20:59:05.039Z,8.39
2018-11-06T21:01:34.000Z,8.31
2018-11-06T21:04:05.845Z,8.39
2018-11-06T21:06:34.451Z,8.31
2018-11-06T21:09:08.601Z,8.21
2018-11-06T21:11:37.499Z,8.13
2018-11-06T21:14:06.737Z,8.07
2018-11-06T21:16:35.557Z,8.05
2018-11-06T21:19:05.482Z,8.14
2018-11-06T21:21:34.397Z,8.13
2018-11-06T21:24:05.851Z,8.11
2018-11-06T21:26:34.735Z,8.05
2018-11-06T21:29:07.301Z,8.00
2018-11-06T21:31:35.980Z,7.98
2018-11-06T21:34:05.281Z,7.98
2018-11-06T21:36:34.854Z,7.95
2018-11-06T21:39:06.636Z,8.01
2018-11-06T21:41:35.227Z,8.00
2018-11-06T21:44:05.960Z,7.95
2018-11-06T21:46:34.610Z,7.94
2018-11-06T21:49:04.918Z,7.95
2018-11-06T21:51:33.622Z,7.89
2018-11-06T21:54:04.868Z,7.87
2018-11-06T21:56:33.462Z,7.87
2018-11-06T21:59:03.900Z,7.88
2018-11-06T22:01:32.801Z,7.84
2018-11-06T22:04:03.218Z,7.91
2018-11-06T22:06:31.823Z,8.16
2018-11-06T22:09:07.300Z,8.12
2018-11-06T22:11:35.896Z,8.09
2018-11-06T22:14:06.215Z,8.13
2018-11-06T22:16:34.757Z,8.16
2018-11-06T22:19:04.615Z,8.07
2018-11-06T22:21:34.581Z,7.94
2018-11-06T22:24:04.868Z,7.87
2018-11-06T22:26:33.433Z,7.93
2018-11-06T22:29:02.853Z,7.95
2018-11-06T22:31:31.541Z,7.98
2018-11-06T22:33:59.965Z,7.98
2018-11-06T22:36:28.647Z,7.97
2018-11-06T22:38:57.167Z,8.05
2018-11-06T22:41:25.842Z,7.98
2018-11-06T22:43:54.476Z,7.87
2018-11-06T22:46:23.329Z,7.81
2018-11-06T22:48:51.872Z,7.91
2018-11-06T22:51:21.386Z,7.81
2018-11-06T22:53:49.943Z,7.78
2018-11-06T22:56:18.459Z,7.93
2018-11-06T22:58:47.169Z,7.92
2018-11-06T23:01:24.749Z,7.94
2018-11-06T23:03:53.990Z,7.94
2018-11-06T23:06:22.716Z,7.83
2018-11-06T23:08:51.425Z,7.88
2018-11-06T23:11:19.937Z,7.87
2018-11-06T23:13:56.073Z,7.82
2018-11-06T23:16:24.619Z,7.76
2018-11-06T23:18:53.116Z,7.78
2018-11-06T23:21:21.689Z,7.80
2018-11-06T23:23:50.225Z,7.89
2018-11-06T23:26:18.884Z,7.89
2018-11-06T23:28:47.386Z,7.93
2018-11-06T23:31:16.351Z,7.95
2018-11-06T23:33:45.317Z,8.00
2018-11-06T23:36:13.865Z,7.99
2018-11-06T23:38:42.817Z,8.02
2018-11-06T23:41:11.538Z,8.03
2018-11-06T23:43:40.119Z,8.10
2018-11-06T23:46:09.182Z,8.11
2018-11-06T23:48:37.744Z,8.08
2018-11-06T23:51:06.306Z,8.19
2018-11-06T23:53:34.926Z,8.22
2018-11-06T23:56:05.301Z,8.21
2018-11-06T23:58:34.068Z,8.18
